BAW425 EGKK-CYUL
Flight info
| Callsign | BAW425 |
|---|---|
| Flight time | N/A |
| Altitude | 38000 |
| Route | NOVMA L620 SAM N19 ADKIK DCT MOPAT DCT DOGAL/M083F390 DCT 55N020W 55N030W 55N040W 54N050W DCT NEEKO/N0482F400 N622E TAFFY DCT ATENE DCT KEBIG ROCKT3 |
| Aircraft | A388/J-SADE2E3FGHIJ3J4J5M1RWXY/LB1D1 |
Departure
| Time | 2026-05-04 20:26 |
|---|---|
| Airport | London Gatwick Airport (EGKK) |
Arrival
| Time | N/A |
|---|---|
| Airport | Montreal / Pierre Elliott Trudeau International Airport (CYUL) |
| Time | Latitude | Longitude | Altitude | Speed | Heading |
|---|---|---|---|---|---|
| 2026-05-04 19:40 | 51.16241 | -0.18110 | 218 ft | 0 kts | 77° |
| 2026-05-04 20:11 | 51.16240 | -0.18118 | 221 ft | 1 kts | 77° |
| 2026-05-04 20:11 | 51.16239 | -0.18123 | 221 ft | 1 kts | 77° |
| 2026-05-04 20:12 | 51.16238 | -0.18137 | 221 ft | 0 kts | 77° |
| 2026-05-04 20:12 | 51.16235 | -0.18155 | 215 ft | 2 kts | 82° |
| 2026-05-04 20:12 | 51.16237 | -0.18186 | 216 ft | 3 kts | 103° |
| 2026-05-04 20:12 | 51.16247 | -0.18212 | 222 ft | 3 kts | 136° |
| 2026-05-04 20:13 | 51.16266 | -0.18225 | 222 ft | 3 kts | 166° |
| 2026-05-04 20:13 | 51.16270 | -0.18226 | 222 ft | 0 kts | 166° |
| 2026-05-04 20:15 | 51.16269 | -0.18226 | 222 ft | 2 kts | 166° |
| 2026-05-04 20:15 | 51.16200 | -0.18201 | 214 ft | 15 kts | 171° |
| 2026-05-04 20:15 | 51.16086 | -0.18168 | 214 ft | 18 kts | 169° |
| 2026-05-04 20:16 | 51.15952 | -0.18123 | 214 ft | 21 kts | 168° |
| 2026-05-04 20:16 | 51.15817 | -0.18076 | 215 ft | 9 kts | 168° |
| 2026-05-04 20:16 | 51.15773 | -0.18061 | 216 ft | 2 kts | 167° |
| 2026-05-04 20:17 | 51.15763 | -0.18057 | 215 ft | 4 kts | 167° |
| 2026-05-04 20:17 | 51.15716 | -0.18049 | 217 ft | 9 kts | 191° |
| 2026-05-04 20:17 | 51.15678 | -0.18111 | 218 ft | 9 kts | 261° |
| 2026-05-04 20:18 | 51.15662 | -0.18220 | 221 ft | 5 kts | 223° |
| 2026-05-04 20:18 | 51.15625 | -0.18233 | 219 ft | 8 kts | 174° |
| 2026-05-04 20:18 | 51.15549 | -0.18213 | 210 ft | 14 kts | 169° |
| 2026-05-04 20:18 | 51.15442 | -0.18173 | 215 ft | 18 kts | 163° |
| 2026-05-04 20:19 | 51.15316 | -0.18122 | 215 ft | 18 kts | 167° |
| 2026-05-04 20:19 | 51.15215 | -0.18128 | 220 ft | 13 kts | 230° |
| 2026-05-04 20:19 | 51.15187 | -0.18283 | 220 ft | 17 kts | 258° |
| 2026-05-04 20:19 | 51.15161 | -0.18487 | 217 ft | 20 kts | 258° |
| 2026-05-04 20:20 | 51.15130 | -0.18725 | 215 ft | 23 kts | 258° |
| 2026-05-04 20:20 | 51.15096 | -0.18985 | 216 ft | 25 kts | 258° |
| 2026-05-04 20:20 | 51.15059 | -0.19264 | 210 ft | 26 kts | 257° |
| 2026-05-04 20:20 | 51.15019 | -0.19544 | 216 ft | 26 kts | 257° |
| 2026-05-04 20:21 | 51.14979 | -0.19830 | 217 ft | 27 kts | 258° |
| 2026-05-04 20:21 | 51.14939 | -0.20127 | 218 ft | 28 kts | 258° |
| 2026-05-04 20:21 | 51.14854 | -0.20753 | 220 ft | 29 kts | 257° |
| 2026-05-04 20:22 | 51.14820 | -0.20991 | 216 ft | 15 kts | 257° |
| 2026-05-04 20:22 | 51.14813 | -0.21036 | 218 ft | 6 kts | 257° |
| 2026-05-04 20:22 | 51.14789 | -0.21172 | 219 ft | 13 kts | 251° |
| 2026-05-04 20:22 | 51.14762 | -0.21328 | 213 ft | 12 kts | 257° |
| 2026-05-04 20:23 | 51.14744 | -0.21381 | 210 ft | 4 kts | 216° |
| 2026-05-04 20:23 | 51.14735 | -0.21388 | 220 ft | 0 kts | 190° |
| 2026-05-04 20:23 | 51.14716 | -0.21388 | 219 ft | 5 kts | 164° |
| 2026-05-04 20:23 | 51.14661 | -0.21350 | 219 ft | 11 kts | 152° |
| 2026-05-04 20:24 | 51.14623 | -0.21329 | 220 ft | 0 kts | 168° |
| 2026-05-04 20:25 | 51.14607 | -0.21324 | 213 ft | 6 kts | 168° |
| 2026-05-04 20:25 | 51.14550 | -0.21287 | 219 ft | 11 kts | 142° |
| 2026-05-04 20:25 | 51.14520 | -0.21182 | 217 ft | 13 kts | 84° |
| 2026-05-04 20:25 | 51.14590 | -0.20677 | 219 ft | 88 kts | 77° |
| 2026-05-04 20:26 | 51.14769 | -0.19377 | 214 ft | 149 kts | 78° |
| 2026-05-04 20:26 | 51.14991 | -0.17649 | 589 ft | 159 kts | 77° |
| 2026-05-04 20:26 | 51.15219 | -0.15935 | 1238 ft | 156 kts | 76° |
| 2026-05-04 20:26 | 51.15467 | -0.14217 | 1823 ft | 159 kts | 76° |
| 2026-05-04 20:27 | 51.15714 | -0.12512 | 2317 ft | 166 kts | 76° |
| 2026-05-04 20:27 | 51.15986 | -0.10597 | 2577 ft | 186 kts | 76° |
| 2026-05-04 20:27 | 51.16282 | -0.08461 | 2864 ft | 210 kts | 75° |
| 2026-05-04 20:27 | 51.16957 | -0.06361 | 3464 ft | 223 kts | 45° |
| 2026-05-04 20:28 | 51.18297 | -0.05150 | 4424 ft | 224 kts | 13° |
| 2026-05-04 20:28 | 51.19865 | -0.05204 | 5312 ft | 230 kts | 348° |
| 2026-05-04 20:28 | 51.21391 | -0.06097 | 6179 ft | 236 kts | 325° |
| 2026-05-04 20:28 | 51.22473 | -0.08060 | 7070 ft | 240 kts | 295° |
| 2026-05-04 20:29 | 51.22802 | -0.10635 | 7929 ft | 244 kts | 266° |
| 2026-05-04 20:29 | 51.22502 | -0.13338 | 8665 ft | 256 kts | 258° |
| 2026-05-04 20:29 | 51.22108 | -0.16236 | 9127 ft | 278 kts | 258° |
| 2026-05-04 20:29 | 51.21708 | -0.19314 | 9874 ft | 286 kts | 258° |
| 2026-05-04 20:30 | 51.21325 | -0.22438 | 10656 ft | 291 kts | 259° |
| 2026-05-04 20:30 | 51.20947 | -0.25635 | 11415 ft | 296 kts | 259° |
| 2026-05-04 20:30 | 51.20695 | -0.27795 | 11918 ft | 299 kts | 259° |
| 2026-05-04 20:30 | 51.20314 | -0.31088 | 12684 ft | 304 kts | 259° |
| 2026-05-04 20:31 | 51.19926 | -0.34427 | 13418 ft | 309 kts | 259° |
| 2026-05-04 20:31 | 51.19514 | -0.37811 | 14122 ft | 313 kts | 258° |
| 2026-05-04 20:31 | 51.19066 | -0.41226 | 14844 ft | 315 kts | 257° |
| 2026-05-04 20:31 | 51.18608 | -0.44657 | 15524 ft | 317 kts | 257° |
| 2026-05-04 20:32 | 51.18154 | -0.48066 | 16153 ft | 321 kts | 257° |
| 2026-05-04 20:32 | 51.17601 | -0.51524 | 16803 ft | 323 kts | 248° |
| 2026-05-04 20:32 | 51.16527 | -0.54660 | 17458 ft | 323 kts | 232° |
| 2026-05-04 20:32 | 51.14990 | -0.57290 | 18053 ft | 327 kts | 223° |
| 2026-05-04 20:33 | 51.13321 | -0.59911 | 18246 ft | 345 kts | 224° |
| 2026-05-04 20:33 | 51.11601 | -0.62659 | 18399 ft | 362 kts | 224° |
| 2026-05-04 20:33 | 51.09782 | -0.65581 | 18563 ft | 377 kts | 224° |
| 2026-05-04 20:33 | 51.07921 | -0.68573 | 19050 ft | 380 kts | 224° |
| 2026-05-04 20:34 | 51.06076 | -0.71540 | 19625 ft | 381 kts | 225° |
| 2026-05-04 20:34 | 51.04423 | -0.74866 | 20139 ft | 386 kts | 237° |
| 2026-05-04 20:34 | 51.03264 | -0.78730 | 20664 ft | 390 kts | 250° |
| 2026-05-04 20:34 | 51.02610 | -0.82940 | 21171 ft | 394 kts | 257° |
| 2026-05-04 20:35 | 51.02053 | -0.87233 | 21670 ft | 397 kts | 257° |
| 2026-05-04 20:35 | 51.01475 | -0.91541 | 22175 ft | 400 kts | 256° |
| 2026-05-04 20:35 | 51.00889 | -0.95838 | 22681 ft | 402 kts | 256° |
| 2026-05-04 20:35 | 51.00291 | -1.00197 | 23181 ft | 405 kts | 256° |
| 2026-05-04 20:36 | 50.99686 | -1.04590 | 23658 ft | 408 kts | 256° |
| 2026-05-04 20:36 | 50.99075 | -1.09021 | 24113 ft | 410 kts | 256° |
| 2026-05-04 20:36 | 50.98461 | -1.13456 | 24569 ft | 411 kts | 255° |
| 2026-05-04 20:36 | 50.97851 | -1.17853 | 24999 ft | 413 kts | 255° |
| 2026-05-04 20:37 | 50.97228 | -1.22335 | 25455 ft | 416 kts | 255° |
| 2026-05-04 20:37 | 50.96601 | -1.26828 | 25932 ft | 418 kts | 255° |
| 2026-05-04 20:37 | 50.95969 | -1.31340 | 26414 ft | 420 kts | 255° |
| 2026-05-04 20:37 | 50.95333 | -1.35881 | 26909 ft | 423 kts | 255° |
| 2026-05-04 20:38 | 50.94737 | -1.40417 | 27420 ft | 425 kts | 255° |
| 2026-05-04 20:38 | 50.94159 | -1.45042 | 27945 ft | 428 kts | 255° |
| 2026-05-04 20:38 | 50.93579 | -1.49694 | 28464 ft | 431 kts | 255° |
| 2026-05-04 20:38 | 50.92997 | -1.54318 | 28976 ft | 433 kts | 255° |
| 2026-05-04 20:39 | 50.92399 | -1.59013 | 29526 ft | 436 kts | 255° |
| 2026-05-04 20:39 | 50.91789 | -1.63753 | 30068 ft | 439 kts | 254° |
| 2026-05-04 20:39 | 50.91175 | -1.68507 | 30500 ft | 442 kts | 255° |
| 2026-05-04 20:39 | 50.90550 | -1.73315 | 30922 ft | 446 kts | 255° |
| 2026-05-04 20:40 | 50.89927 | -1.78098 | 31323 ft | 449 kts | 255° |
| 2026-05-04 20:40 | 50.89289 | -1.82985 | 31741 ft | 453 kts | 255° |
| 2026-05-04 20:40 | 50.88644 | -1.87905 | 32150 ft | 457 kts | 255° |
| 2026-05-04 20:40 | 50.87992 | -1.92862 | 32544 ft | 461 kts | 255° |
| 2026-05-04 20:41 | 50.87341 | -1.97798 | 32933 ft | 464 kts | 256° |
| 2026-05-04 20:41 | 50.86677 | -2.02811 | 33324 ft | 468 kts | 256° |
| 2026-05-04 20:41 | 50.86000 | -2.07901 | 33711 ft | 472 kts | 256° |
| 2026-05-04 20:41 | 50.85319 | -2.13008 | 34092 ft | 476 kts | 256° |
| 2026-05-04 20:42 | 50.84627 | -2.18182 | 34413 ft | 480 kts | 256° |
| 2026-05-04 20:42 | 50.83938 | -2.23309 | 34734 ft | 483 kts | 256° |
| 2026-05-04 20:42 | 50.83237 | -2.28512 | 35151 ft | 485 kts | 256° |
| 2026-05-04 20:42 | 50.82530 | -2.33735 | 35582 ft | 485 kts | 257° |
| 2026-05-04 20:43 | 50.81818 | -2.38978 | 36036 ft | 486 kts | 257° |
| 2026-05-04 20:43 | 50.81105 | -2.44212 | 36492 ft | 486 kts | 257° |
| 2026-05-04 20:43 | 50.80529 | -2.49432 | 36915 ft | 487 kts | 263° |
| 2026-05-04 20:43 | 50.80409 | -2.54808 | 37350 ft | 489 kts | 271° |
| 2026-05-04 20:44 | 50.80762 | -2.60181 | 37794 ft | 490 kts | 279° |
| 2026-05-04 20:44 | 50.81544 | -2.65385 | 38043 ft | 495 kts | 285° |
| 2026-05-04 20:44 | 50.83409 | -2.75883 | 38009 ft | 491 kts | 285° |
| 2026-05-04 20:45 | 50.85227 | -2.86299 | 38009 ft | 493 kts | 285° |
| 2026-05-04 20:45 | 50.87037 | -2.96774 | 38017 ft | 494 kts | 284° |
| 2026-05-04 20:46 | 50.88841 | -3.07285 | 38037 ft | 494 kts | 284° |
| 2026-05-04 20:46 | 50.90623 | -3.17735 | 38037 ft | 494 kts | 284° |
| 2026-05-04 20:47 | 50.92411 | -3.28275 | 38020 ft | 493 kts | 284° |
| 2026-05-04 20:47 | 50.94175 | -3.38743 | 38022 ft | 493 kts | 284° |
| 2026-05-04 20:48 | 50.95937 | -3.49260 | 38023 ft | 493 kts | 284° |
| 2026-05-04 20:48 | 50.97686 | -3.59765 | 38020 ft | 493 kts | 284° |
| 2026-05-04 20:49 | 50.99431 | -3.70306 | 38023 ft | 493 kts | 284° |
| 2026-05-04 20:49 | 51.01160 | -3.80819 | 38027 ft | 493 kts | 284° |
| 2026-05-04 20:50 | 51.02892 | -3.91417 | 38032 ft | 494 kts | 284° |
| 2026-05-04 20:50 | 51.04600 | -4.01935 | 38036 ft | 494 kts | 284° |
| 2026-05-04 20:51 | 51.06313 | -4.12550 | 38037 ft | 494 kts | 284° |
| 2026-05-04 20:51 | 51.08007 | -4.23108 | 38038 ft | 494 kts | 284° |
| 2026-05-04 20:52 | 51.09697 | -4.33719 | 38041 ft | 494 kts | 284° |
| 2026-05-04 20:52 | 51.11382 | -4.44357 | 38034 ft | 495 kts | 284° |
| 2026-05-04 20:53 | 51.13047 | -4.54946 | 38034 ft | 495 kts | 284° |
| 2026-05-04 20:53 | 51.14712 | -4.65600 | 38038 ft | 496 kts | 284° |
| 2026-05-04 20:54 | 51.16370 | -4.76276 | 38037 ft | 496 kts | 284° |
| 2026-05-04 20:54 | 51.18013 | -4.86927 | 38056 ft | 497 kts | 284° |
| 2026-05-04 20:55 | 51.19656 | -4.97646 | 38066 ft | 497 kts | 284° |
| 2026-05-04 20:55 | 51.21282 | -5.08332 | 38062 ft | 497 kts | 284° |
| 2026-05-04 20:56 | 51.22909 | -5.19093 | 38064 ft | 497 kts | 284° |
| 2026-05-04 20:56 | 51.24515 | -5.29786 | 38067 ft | 498 kts | 284° |
| 2026-05-04 20:57 | 51.26124 | -5.40573 | 38071 ft | 498 kts | 284° |
| 2026-05-04 20:57 | 51.27712 | -5.51293 | 38050 ft | 498 kts | 284° |
| 2026-05-04 20:58 | 51.29288 | -5.62007 | 38069 ft | 498 kts | 284° |
| 2026-05-04 20:58 | 51.30871 | -5.72847 | 38077 ft | 498 kts | 283° |
| 2026-05-04 20:59 | 51.32441 | -5.83670 | 38079 ft | 499 kts | 283° |
| 2026-05-04 20:59 | 51.33993 | -5.94440 | 38071 ft | 499 kts | 283° |